Time;durP1;ratioP1;P1;durP2;ratioP2;P2;SDS_P1;SDS_P2;PMS_P1;PMS_P2;Temp;Humidity;BMP_temperature;BMP_pressure;BME280_temperature;BME280_humidity;BME280_pressure;Samples;Min_cycle;Max_cycle;Signal;HPM_P1;HPM_P2
2023/04/01 00:04:11;;;;;;;0.63;0.38;;;15.90;74.80;;;;;;10328511;28;20137;-55
2023/04/01 00:09:12;;;;;;;0.30;0.30;;;15.90;74.80;;;;;;10323385;28;20143;-55
2023/04/01 00:14:13;;;;;;;0.57;0.30;;;15.90;74.90;;;;;;10323296;28;20022;-56
2023/04/01 00:19:14;;;;;;;1.13;0.50;;;15.90;74.80;;;;;;10323122;28;20125;-55
2023/04/01 00:24:15;;;;;;;1.00;0.30;;;15.90;74.80;;;;;;10321838;28;20092;-57
2023/04/01 00:29:16;;;;;;;0.95;0.40;;;15.90;74.80;;;;;;10322877;28;20084;-57
2023/04/01 00:34:16;;;;;;;1.10;0.43;;;15.90;74.70;;;;;;10322979;28;20025;-56
2023/04/01 00:39:18;;;;;;;1.23;0.40;;;15.90;74.80;;;;;;10323030;28;20156;-56
2023/04/01 00:44:26;;;;;;;0.88;0.35;;;15.90;74.80;;;;;;10322368;28;20034;-56
2023/04/01 00:49:35;;;;;;;0.52;0.40;;;15.90;74.70;;;;;;10327614;28;20038;-56
2023/04/01 00:54:37;;;;;;;2.03;0.40;;;15.90;74.70;;;;;;10329869;28;20110;-57
2023/04/01 00:59:43;;;;;;;2.40;0.88;;;15.80;74.70;;;;;;10338923;28;20064;-57
2023/04/01 01:04:45;;;;;;;0.68;0.30;;;15.80;74.60;;;;;;10329745;28;20587;-56
2023/04/01 01:10:27;;;;;;;0.77;0.30;;;15.90;74.70;;;;;;10329037;28;20493;-56
2023/04/01 01:15:53;;;;;;;0.68;0.43;;;15.80;74.60;;;;;;10306325;28;20038;-57
2023/04/01 01:21:19;;;;;;;1.23;0.43;;;15.80;74.60;;;;;;10327418;28;20038;-56
2023/04/01 01:26:53;;;;;;;1.00;0.52;;;15.80;74.60;;;;;;10327078;28;20033;-56
2023/04/01 01:32:32;;;;;;;1.00;0.35;;;15.80;74.60;;;;;;10328469;28;20073;-56
2023/04/01 01:37:33;;;;;;;0.80;0.50;;;15.80;74.60;;;;;;10326615;28;20038;-56
2023/04/01 01:42:39;;;;;;;0.70;0.30;;;15.80;74.60;;;;;;10328074;28;20397;-55
2023/04/01 01:47:41;;;;;;;1.25;0.50;;;15.80;74.60;;;;;;10326528;28;20458;-56
2023/04/01 01:52:42;;;;;;;2.00;0.60;;;15.80;74.60;;;;;;10326533;28;20576;-56
2023/04/01 01:57:44;;;;;;;0.82;0.50;;;15.80;74.50;;;;;;10326735;28;20023;-56
2023/04/01 02:02:47;;;;;;;0.70;0.40;;;15.80;74.50;;;;;;10337785;28;20107;-55
2023/04/01 02:08:13;;;;;;;0.75;0.40;;;15.80;74.50;;;;;;10325710;28;20477;-57
2023/04/01 02:13:29;;;;;;;0.95;0.40;;;15.70;74.40;;;;;;10326372;28;20023;-56
2023/04/01 02:18:32;;;;;;;0.70;0.30;;;15.80;74.50;;;;;;10326627;28;20109;-54
2023/04/01 02:23:35;;;;;;;1.60;0.60;;;15.70;74.40;;;;;;10325161;28;20068;-57
2023/04/01 02:28:38;;;;;;;0.70;0.30;;;15.70;74.40;;;;;;10324798;28;20030;-54
2023/04/01 02:33:39;;;;;;;1.70;0.40;;;15.70;74.40;;;;;;10308413;28;20082;-57
2023/04/01 02:38:42;;;;;;;0.85;0.50;;;15.70;75.00;;;;;;10325469;28;20027;-55
2023/04/01 02:43:43;;;;;;;0.98;0.30;;;15.70;74.40;;;;;;10324501;28;20026;-56
2023/04/01 02:48:43;;;;;;;1.45;0.60;;;15.70;74.40;;;;;;10307990;28;20050;-55
2023/04/01 02:53:44;;;;;;;0.85;0.20;;;15.70;74.40;;;;;;10323688;28;20046;-56
2023/04/01 02:58:45;;;;;;;1.08;0.30;;;15.70;74.40;;;;;;10327382;28;20037;-56
2023/04/01 03:03:46;;;;;;;2.05;0.68;;;15.70;74.40;;;;;;10332855;28;20209;-56
2023/04/01 03:08:47;;;;;;;1.80;0.50;;;15.70;74.40;;;;;;10324890;28;20034;-56
2023/04/01 03:13:48;;;;;;;1.92;0.47;;;15.70;74.40;;;;;;10323211;28;20376;-56
2023/04/01 03:18:50;;;;;;;3.17;0.70;;;15.60;74.40;;;;;;10324742;28;20050;-56
2023/04/01 03:23:51;;;;;;;1.10;0.50;;;15.60;74.30;;;;;;10324584;28;20034;-56
2023/04/01 03:28:52;;;;;;;2.55;0.60;;;15.60;74.40;;;;;;10323047;28;20042;-57
2023/04/01 03:33:53;;;;;;;1.25;0.40;;;15.60;74.40;;;;;;10323809;28;20125;-57
2023/04/01 03:38:54;;;;;;;1.27;0.70;;;15.60;74.40;;;;;;10324200;28;20165;-57
2023/04/01 03:43:55;;;;;;;0.98;0.30;;;15.60;74.30;;;;;;10322654;28;21145;-56
2023/04/01 03:48:55;;;;;;;1.73;0.60;;;15.60;74.30;;;;;;10322660;28;20119;-56
2023/04/01 03:53:56;;;;;;;1.85;0.45;;;15.60;74.30;;;;;;10323726;28;20072;-56
2023/04/01 03:58:57;;;;;;;1.15;0.70;;;15.60;74.30;;;;;;10326266;28;20014;-55
2023/04/01 04:03:59;;;;;;;1.77;0.52;;;15.60;74.30;;;;;;10328132;28;20061;-57
2023/04/01 04:08:59;;;;;;;0.90;0.40;;;15.60;74.30;;;;;;10322264;28;20042;-56
2023/04/01 04:14:01;;;;;;;1.17;0.50;;;15.60;74.30;;;;;;10321120;28;20029;-56
2023/04/01 04:19:03;;;;;;;1.27;0.50;;;15.60;74.30;;;;;;10322650;28;20099;-57
2023/04/01 04:24:04;;;;;;;0.90;0.40;;;15.70;73.80;;;;;;10325595;28;20027;-54
2023/04/01 04:29:05;;;;;;;1.27;0.68;;;15.80;73.40;;;;;;10328960;28;20035;-52
2023/04/01 04:34:06;;;;;;;4.32;1.33;;;15.90;73.00;;;;;;10330902;28;20034;-56
2023/04/01 04:39:06;;;;;;;1.35;0.47;;;16.00;72.60;;;;;;10330338;28;20103;-56
2023/04/01 04:44:08;;;;;;;1.23;0.50;;;16.00;72.30;;;;;;10330095;28;20072;-57
2023/04/01 04:49:09;;;;;;;1.00;0.60;;;16.00;72.40;;;;;;10329363;28;20128;-54
2023/04/01 04:54:10;;;;;;;1.77;0.70;;;16.00;72.40;;;;;;10326034;28;20022;-57
2023/04/01 04:59:12;;;;;;;1.85;0.70;;;16.00;72.60;;;;;;10323285;28;20083;-57
2023/04/01 05:04:13;;;;;;;3.05;1.02;;;16.00;72.60;;;;;;10315785;28;20042;-57
2023/04/01 05:09:14;;;;;;;2.38;0.60;;;16.10;72.40;;;;;;10318398;28;20081;-56
2023/04/01 05:14:16;;;;;;;6.63;0.95;;;16.20;72.30;;;;;;10323833;28;20634;-57
2023/04/01 05:19:16;;;;;;;4.05;0.80;;;16.10;72.90;;;;;;10328488;28;20077;-56
2023/04/01 05:24:17;;;;;;;3.72;0.90;;;16.10;72.60;;;;;;10323046;28;20610;-57
2023/04/01 05:29:18;;;;;;;4.80;1.33;;;16.20;72.50;;;;;;10319051;28;20844;-55
2023/04/01 05:34:18;;;;;;;3.92;1.30;;;16.00;73.60;;;;;;10312377;28;20077;-53
2023/04/01 05:39:19;;;;;;;7.95;0.90;;;16.00;74.10;;;;;;10319900;28;20132;-56
2023/04/01 05:44:20;;;;;;;3.08;1.17;;;16.00;74.40;;;;;;10319135;28;20022;-57
2023/04/01 05:49:20;;;;;;;13.35;1.63;;;16.00;74.30;;;;;;10308399;28;20157;-56
2023/04/01 05:54:21;;;;;;;5.15;0.68;;;16.00;74.60;;;;;;10304014;28;20046;-57
2023/04/01 05:59:22;;;;;;;3.88;0.80;;;16.00;74.70;;;;;;10304421;28;20091;-58
2023/04/01 06:04:22;;;;;;;10.98;1.05;;;16.00;75.00;;;;;;10297410;28;20053;-57
2023/04/01 06:09:30;;;;;;;3.45;1.20;;;16.00;75.10;;;;;;10328179;28;20177;-57
2023/04/01 06:15:20;;;;;;;6.35;0.93;;;16.00;75.20;;;;;;10316356;28;20026;-57
2023/04/01 06:20:55;;;;;;;5.70;0.95;;;16.00;75.20;;;;;;10314425;28;20477;-56
2023/04/01 06:26:11;;;;;;;3.65;1.20;;;15.90;75.30;;;;;;10310979;28;20022;-56
2023/04/01 06:31:45;;;;;;;0.93;0.57;;;15.90;75.70;;;;;;10325587;28;20030;-56
2023/04/01 06:37:07;;;;;;;6.53;1.10;;;15.90;74.80;;;;;;10323194;28;20057;-56
2023/04/01 06:42:17;;;;;;;6.53;1.02;;;16.10;75.60;;;;;;10312159;28;20022;-52
2023/04/01 06:47:55;;;;;;;18.33;2.13;;;16.00;75.10;;;;;;10324216;28;20041;-55
2023/04/01 06:53:12;;;;;;;10.10;1.25;;;16.10;75.20;;;;;;10319122;28;20117;-57
2023/04/01 06:58:24;;;;;;;10.05;1.70;;;16.20;74.90;;;;;;10324038;28;20109;-55
2023/04/01 07:03:41;;;;;;;15.10;2.15;;;16.30;75.60;;;;;;10336182;28;20046;-54
2023/04/01 07:08:44;;;;;;;10.65;1.35;;;16.30;75.80;;;;;;10324967;28;20031;-55
2023/04/01 07:14:10;;;;;;;8.70;1.35;;;16.40;76.30;;;;;;10324140;28;20018;-56
2023/04/01 07:20:10;;;;;;;8.65;1.48;;;16.40;76.10;;;;;;10323138;28;20030;-56
2023/04/01 07:25:22;;;;;;;17.27;2.37;;;16.40;76.00;;;;;;10315553;28;20038;-57
2023/04/01 07:30:24;;;;;;;9.85;2.97;;;16.40;75.90;;;;;;10301502;28;20035;-55
2023/04/01 07:35:54;;;;;;;9.85;3.30;;;16.40;76.10;;;;;;10323816;28;20110;-55
2023/04/01 07:42:01;;;;;;;12.70;3.83;;;16.40;76.40;;;;;;10321977;28;20010;-54
2023/04/01 07:47:20;;;;;;;13.30;3.22;;;16.30;76.50;;;;;;10304572;28;20133;-55
2023/04/01 07:52:44;;;;;;;17.23;3.45;;;16.30;77.40;;;;;;10321871;28;20014;-56
2023/04/01 07:58:25;;;;;;;14.38;3.08;;;16.50;76.50;;;;;;10324933;28;20074;-55
2023/04/01 08:04:05;;;;;;;18.90;3.90;;;16.60;75.90;;;;;;10326074;28;20058;-56
2023/04/01 08:09:52;;;;;;;19.85;4.00;;;16.70;75.40;;;;;;10329357;28;20069;-56
2023/04/01 08:14:56;;;;;;;15.95;4.72;;;16.80;75.20;;;;;;10330684;28;20026;-57
2023/04/01 08:20:37;;;;;;;20.10;4.63;;;16.70;75.00;;;;;;10319532;28;20023;-56
2023/04/01 08:25:56;;;;;;;19.95;5.07;;;16.70;75.70;;;;;;10327069;28;20048;-56
2023/04/01 08:31:30;;;;;;;25.23;5.40;;;16.70;75.90;;;;;;10315871;28;20038;-58
2023/04/01 08:36:40;;;;;;;21.85;5.78;;;16.70;75.50;;;;;;10304230;28;20038;-58
2023/04/01 08:42:22;;;;;;;16.73;4.43;;;17.10;74.90;;;;;;10328998;28;20509;-56
2023/04/01 08:47:57;;;;;;;20.98;6.28;;;17.10;74.50;;;;;;10339009;28;20038;-56
2023/04/01 08:53:13;;;;;;;30.00;7.95;;;17.00;75.30;;;;;;10329827;28;20037;-56
2023/04/01 08:58:46;;;;;;;26.17;5.72;;;17.00;75.40;;;;;;10329067;28;20023;-56
2023/04/01 09:04:39;;;;;;;17.50;4.50;;;17.10;74.60;;;;;;10320984;28;20105;-56
2023/04/01 09:10:07;;;;;;;17.90;5.38;;;16.90;75.40;;;;;;10328708;28;20037;-57
2023/04/01 09:16:00;;;;;;;14.30;4.18;;;16.70;75.80;;;;;;10328888;28;20015;-57
2023/04/01 09:21:35;;;;;;;17.52;5.28;;;16.60;75.90;;;;;;10311879;28;20031;-55
2023/04/01 09:27:11;;;;;;;12.98;4.57;;;16.50;75.80;;;;;;10326826;28;20125;-55
2023/04/01 09:32:34;;;;;;;10.20;4.00;;;16.50;75.90;;;;;;10318030;28;20181;-55
2023/04/01 09:38:00;;;;;;;11.15;3.45;;;16.50;75.80;;;;;;10323948;28;20023;-56
2023/04/01 09:43:39;;;;;;;11.55;3.13;;;16.40;76.10;;;;;;10322403;28;20101;-57
2023/04/01 09:49:17;;;;;;;13.25;4.55;;;16.40;75.90;;;;;;10313140;28;20753;-58
2023/04/01 09:54:59;;;;;;;15.38;3.92;;;16.50;75.80;;;;;;10325062;28;20031;-55
2023/04/01 10:00:40;;;;;;;18.98;4.40;;;16.50;76.20;;;;;;10337212;28;20020;-54
2023/04/01 10:06:20;;;;;;;11.32;3.67;;;16.60;76.30;;;;;;10299751;28;20046;-56
2023/04/01 10:11:54;;;;;;;31.23;5.25;;;16.50;76.10;;;;;;10327431;28;20021;-55
2023/04/01 10:17:48;;;;;;;9.77;3.13;;;16.50;76.70;;;;;;10327367;28;20061;-56
2023/04/01 10:23:15;;;;;;;24.20;4.30;;;16.60;76.40;;;;;;10326394;28;20036;-55
2023/04/01 10:29:02;;;;;;;18.63;3.67;;;16.60;76.50;;;;;;10305954;28;20045;-56
2023/04/01 10:34:56;;;;;;;23.98;5.35;;;16.70;76.40;;;;;;10325810;28;20038;-55
2023/04/01 10:40:22;;;;;;;23.73;3.90;;;16.60;76.30;;;;;;10323683;28;20122;-55
2023/04/01 10:46:00;;;;;;;23.65;3.97;;;16.50;76.40;;;;;;10324925;28;20378;-56
2023/04/01 10:51:38;;;;;;;18.17;3.70;;;16.50;76.90;;;;;;10317760;28;20117;-54
2023/04/01 10:57:09;;;;;;;11.35;3.38;;;16.50;78.50;;;;;;10322812;28;20030;-55
2023/04/01 11:02:59;;;;;;;14.60;2.92;;;16.80;77.80;;;;;;10323408;28;20058;-56
2023/04/01 11:08:37;;;;;;;21.02;3.13;;;17.00;77.10;;;;;;10324439;28;20046;-56
2023/04/01 11:14:15;;;;;;;19.35;4.15;;;17.10;77.10;;;;;;10322129;28;20105;-55
2023/04/01 11:19:44;;;;;;;24.25;5.28;;;17.00;77.30;;;;;;10323935;28;20053;-56
2023/04/01 11:25:17;;;;;;;17.05;3.50;;;16.90;77.40;;;;;;10324385;28;20038;-55
2023/04/01 11:30:55;;;;;;;16.48;2.92;;;16.80;77.20;;;;;;10324448;28;20129;-56
2023/04/01 11:36:25;;;;;;;16.45;3.75;;;16.70;77.40;;;;;;10321253;28;20033;-53
2023/04/01 11:41:48;;;;;;;23.27;3.72;;;16.70;77.40;;;;;;10319944;28;20006;-54
2023/04/01 11:47:01;;;;;;;25.55;4.25;;;16.70;77.30;;;;;;10319367;28;20038;-54
2023/04/01 11:52:26;;;;;;;27.05;4.15;;;16.70;77.60;;;;;;10318723;28;20010;-54
2023/04/01 11:57:46;;;;;;;23.50;3.95;;;16.60;77.90;;;;;;10322215;28;20026;-56
2023/04/01 12:03:47;;;;;;;27.25;4.75;;;16.60;77.50;;;;;;10318697;28;20201;-53
2023/04/01 12:09:09;;;;;;;61.38;7.13;;;16.50;77.90;;;;;;10314662;28;20042;-56
2023/04/01 12:14:49;;;;;;;74.03;10.13;;;16.60;78.80;;;;;;10321224;28;20629;-56
2023/04/01 12:20:21;;;;;;;70.82;10.02;;;16.70;78.10;;;;;;10321345;28;20473;-56
2023/04/01 12:25:42;;;;;;;71.13;9.02;;;16.70;79.00;;;;;;10310978;28;20107;-54
2023/04/01 12:30:59;;;;;;;51.20;9.00;;;16.70;79.00;;;;;;10320163;28;20521;-56
2023/04/01 12:36:40;;;;;;;51.88;7.85;;;17.00;78.70;;;;;;10321692;28;20401;-56
2023/04/01 12:41:46;;;;;;;38.95;7.00;;;17.10;78.40;;;;;;10321944;28;20027;-57
2023/04/01 12:47:10;;;;;;;63.38;9.25;;;17.20;78.70;;;;;;10329461;28;20114;-54
2023/04/01 12:52:14;;;;;;;64.22;8.95;;;17.00;78.80;;;;;;10323270;28;20037;-57
2023/04/01 12:57:54;;;;;;;47.47;7.78;;;17.10;78.80;;;;;;10327798;28;20581;-58
2023/04/01 13:03:28;;;;;;;53.17;9.90;;;17.30;79.20;;;;;;10333486;28;20066;-54
2023/04/01 13:09:03;;;;;;;45.67;8.50;;;17.20;78.50;;;;;;10323567;28;20370;-58
2023/04/01 13:14:16;;;;;;;34.00;8.18;;;16.80;78.50;;;;;;10329097;28;20021;-58
2023/04/01 13:19:37;;;;;;;36.50;8.38;;;16.60;79.10;;;;;;10327117;28;20025;-56
2023/04/01 13:25:15;;;;;;;23.95;4.82;;;16.60;79.40;;;;;;10322927;28;20026;-58
2023/04/01 13:30:42;;;;;;;23.92;6.40;;;16.50;79.20;;;;;;10327435;28;20490;-57
2023/04/01 13:36:12;;;;;;;21.80;4.47;;;16.40;79.30;;;;;;10328043;28;20030;-58
2023/04/01 13:41:27;;;;;;;23.20;5.65;;;16.50;79.10;;;;;;10317988;28;20118;-57
2023/04/01 13:47:25;;;;;;;17.75;5.03;;;16.40;78.90;;;;;;10326898;28;20030;-57
2023/04/01 13:53:22;;;;;;;31.00;6.20;;;16.40;78.60;;;;;;10324521;28;20039;-56
2023/04/01 13:59:22;;;;;;;23.60;4.13;;;16.50;80.90;;;;;;10308648;28;20374;-55
2023/04/01 14:05:19;;;;;;;26.08;6.10;;;17.00;80.70;;;;;;10319113;28;20061;-53
2023/04/01 14:11:02;;;;;;;26.67;4.57;;;17.20;80.60;;;;;;10325977;28;20462;-57
2023/04/01 14:16:40;;;;;;;23.48;4.90;;;17.40;81.10;;;;;;10326371;28;20018;-55
2023/04/01 14:22:11;;;;;;;29.70;6.20;;;17.50;80.60;;;;;;10326434;28;20026;-55
2023/04/01 14:27:30;;;;;;;29.83;5.82;;;17.30;79.90;;;;;;10323922;28;20088;-59
2023/04/01 14:33:17;;;;;;;31.27;6.47;;;17.20;80.40;;;;;;10324863;28;20037;-56
2023/04/01 14:39:31;;;;;;;30.83;5.47;;;17.00;81.60;;;;;;10325995;28;20485;-56
2023/04/01 14:45:03;;;;;;;46.50;9.05;;;17.30;80.70;;;;;;10277724;28;20518;-54
2023/04/01 14:50:22;;;;;;;23.40;5.47;;;16.90;81.00;;;;;;10325075;28;20033;-57
2023/04/01 14:55:32;;;;;;;33.47;6.25;;;17.00;80.70;;;;;;10324483;28;20022;-58
2023/04/01 15:01:17;;;;;;;;;;;17.10;80.60;;;;;;10332105;28;20021;-56
2023/04/01 15:06:54;;;;;;;20.35;4.57;;;17.00;80.40;;;;;;10306524;28;20100;-54
2023/04/01 15:12:23;;;;;;;36.67;5.53;;;17.10;80.50;;;;;;10318454;28;20707;-53
2023/04/01 15:18:05;;;;;;;24.30;3.70;;;17.10;80.00;;;;;;10319628;28;20093;-56
2023/04/01 15:23:21;;;;;;;25.83;6.00;;;17.10;79.90;;;;;;10315500;28;20054;-54
2023/04/01 15:28:46;;;;;;;18.23;5.82;;;17.10;79.60;;;;;;10315757;28;20385;-55
2023/04/01 15:34:05;;;;;;;22.77;4.80;;;17.20;79.60;;;;;;10316991;28;20038;-56
2023/04/01 15:39:20;;;;;;;20.65;4.82;;;17.40;80.70;;;;;;10316615;28;20068;-55
2023/04/01 15:45:06;;;;;;;13.98;3.22;;;17.50;79.70;;;;;;10307796;28;20038;-56
2023/04/01 15:50:53;;;;;;;10.77;3.10;;;17.60;78.50;;;;;;10300355;28;20093;-56
2023/04/01 15:56:18;;;;;;;13.15;3.10;;;17.80;78.10;;;;;;10304205;28;20173;-55
2023/04/01 16:02:10;;;;;;;6.88;3.10;;;18.10;76.80;;;;;;10309602;28;20398;-56
2023/04/01 16:07:48;;;;;;;9.75;2.90;;;18.20;76.80;;;;;;10316636;28;20034;-57
2023/04/01 16:13:16;;;;;;;6.57;1.85;;;18.20;75.60;;;;;;10322512;28;20026;-56
2023/04/01 16:18:44;;;;;;;10.10;1.95;;;18.20;75.80;;;;;;10325249;28;20033;-56
2023/04/01 16:23:57;;;;;;;9.43;2.55;;;18.10;76.60;;;;;;10331116;28;20020;-55
2023/04/01 16:29:20;;;;;;;9.23;2.17;;;18.00;76.40;;;;;;10344877;28;20057;-54
2023/04/01 16:34:30;;;;;;;9.90;2.92;;;17.90;76.90;;;;;;10329496;28;20033;-52
2023/04/01 16:39:54;;;;;;;9.15;2.92;;;17.80;77.10;;;;;;10328792;28;20080;-56
2023/04/01 16:45:06;;;;;;;14.55;3.05;;;17.70;77.40;;;;;;10329356;28;20371;-56
2023/04/01 16:50:39;;;;;;;11.73;2.80;;;17.70;78.30;;;;;;10327425;28;20528;-55
2023/04/01 16:56:16;;;;;;;7.20;2.50;;;17.70;77.80;;;;;;10328272;28;20014;-55
2023/04/01 17:01:50;;;;;;;10.07;2.00;;;17.60;77.40;;;;;;10337076;28;20014;-55
2023/04/01 17:07:10;;;;;;;11.85;2.92;;;17.40;77.60;;;;;;10318496;28;20042;-55
2023/04/01 17:12:47;;;;;;;18.63;3.25;;;17.30;78.20;;;;;;10329585;28;20023;-57
2023/04/01 17:17:53;;;;;;;11.18;2.83;;;17.20;78.30;;;;;;10325903;28;20034;-55
2023/04/01 17:23:43;;;;;;;12.80;2.13;;;17.10;78.50;;;;;;10328475;28;20023;-55
2023/04/01 17:29:17;;;;;;;6.03;2.03;;;17.00;78.80;;;;;;10326817;28;20062;-55
2023/04/01 17:34:50;;;;;;;10.00;1.77;;;17.00;78.80;;;;;;10317639;28;20021;-55
2023/04/01 17:40:57;;;;;;;7.28;1.85;;;16.90;78.70;;;;;;10308253;28;20591;-56
2023/04/01 17:46:35;;;;;;;10.35;2.67;;;16.90;78.60;;;;;;10320026;28;20034;-56
2023/04/01 17:51:56;;;;;;;5.15;1.77;;;16.90;78.70;;;;;;10326758;28;20007;-55
2023/04/01 17:57:29;;;;;;;7.63;2.28;;;16.90;78.80;;;;;;10337492;28;20026;-55
2023/04/01 18:02:56;;;;;;;7.32;2.10;;;16.80;78.60;;;;;;10331588;28;20382;-56
2023/04/01 18:08:19;;;;;;;7.85;2.17;;;16.80;78.60;;;;;;10326988;28;20512;-57
2023/04/01 18:13:56;;;;;;;11.10;1.98;;;16.80;78.50;;;;;;10317043;28;20023;-54
2023/04/01 18:19:27;;;;;;;9.30;1.67;;;16.90;78.00;;;;;;10306226;28;20042;-55
2023/04/01 18:24:55;;;;;;;10.73;1.80;;;16.90;77.80;;;;;;10310464;28;20473;-57
2023/04/01 18:30:16;;;;;;;6.82;1.80;;;17.00;77.30;;;;;;10328544;28;20050;-57
2023/04/01 18:35:32;;;;;;;5.88;1.63;;;17.00;77.10;;;;;;10321101;28;20101;-57
2023/04/01 18:40:50;;;;;;;5.78;1.80;;;17.10;76.90;;;;;;10326222;28;20594;-57
2023/04/01 18:46:05;;;;;;;5.05;1.80;;;17.10;76.90;;;;;;10318405;28;20466;-56
2023/04/01 18:51:30;;;;;;;4.25;1.75;;;17.10;76.90;;;;;;10319876;28;20031;-57
2023/04/01 18:56:44;;;;;;;7.80;2.08;;;17.10;76.80;;;;;;10324259;28;20030;-56
2023/04/01 19:02:09;;;;;;;6.70;1.70;;;17.00;76.90;;;;;;10333549;28;20014;-56
2023/04/01 19:07:43;;;;;;;13.20;1.92;;;17.00;77.00;;;;;;10323513;28;20037;-56
2023/04/01 19:13:19;;;;;;;3.70;1.33;;;16.90;77.20;;;;;;10324766;28;20088;-56
2023/04/01 19:18:52;;;;;;;4.03;1.33;;;17.00;77.00;;;;;;10321620;28;20014;-54
2023/04/01 19:24:05;;;;;;;7.30;1.55;;;17.00;76.90;;;;;;10318999;28;20517;-56
2023/04/01 19:29:53;;;;;;;7.28;1.75;;;17.00;77.00;;;;;;10322494;28;20575;-56
2023/04/01 19:35:42;;;;;;;3.40;1.38;;;16.90;77.00;;;;;;10318706;28;20493;-56
2023/04/01 19:41:12;;;;;;;10.40;1.67;;;16.90;77.10;;;;;;10310729;28;20113;-56
2023/04/01 19:46:19;;;;;;;5.78;1.38;;;16.80;77.70;;;;;;10320960;28;20773;-56
2023/04/01 19:51:31;;;;;;;5.63;1.67;;;16.80;77.20;;;;;;10321810;28;20034;-56
2023/04/01 19:56:58;;;;;;;3.30;1.35;;;16.80;77.20;;;;;;10322391;28;20022;-55
2023/04/01 20:02:08;;;;;;;3.55;1.15;;;16.70;77.20;;;;;;10333989;28;20038;-56
2023/04/01 20:07:22;;;;;;;3.85;1.33;;;16.70;77.20;;;;;;10323506;28;20533;-56
2023/04/01 20:12:55;;;;;;;3.53;1.50;;;16.70;77.30;;;;;;10323667;28;20018;-55
2023/04/01 20:18:00;;;;;;;5.25;1.10;;;16.60;77.20;;;;;;10323566;28;20462;-56
2023/04/01 20:23:09;;;;;;;2.92;1.05;;;16.60;77.30;;;;;;10323366;28;20030;-56
2023/04/01 20:28:19;;;;;;;2.05;1.17;;;16.50;77.30;;;;;;10321665;28;20117;-57
2023/04/01 20:33:42;;;;;;;1.75;1.08;;;16.50;77.30;;;;;;10323260;28;20050;-56
2023/04/01 20:39:21;;;;;;;2.05;0.98;;;16.50;77.40;;;;;;10321388;28;20061;-56
2023/04/01 20:44:44;;;;;;;4.10;1.35;;;16.50;77.50;;;;;;10321504;28;20026;-55
2023/04/01 20:50:04;;;;;;;3.35;1.20;;;16.40;77.60;;;;;;10322139;28;20045;-56
2023/04/01 20:56:01;;;;;;;3.53;1.20;;;16.40;77.60;;;;;;10322540;28;20033;-56
2023/04/01 21:01:26;;;;;;;1.83;1.20;;;16.40;77.60;;;;;;10317835;28;20065;-56
2023/04/01 21:07:04;;;;;;;2.92;1.52;;;16.30;77.60;;;;;;10314963;28;20142;-56
2023/04/01 21:12:30;;;;;;;2.63;1.15;;;16.30;77.60;;;;;;10329423;28;20041;-56
2023/04/01 21:18:04;;;;;;;2.20;1.20;;;16.30;77.60;;;;;;10329204;28;20712;-56
2023/04/01 21:23:38;;;;;;;2.97;1.42;;;16.30;77.60;;;;;;10320240;28;20802;-56
2023/04/01 21:29:46;;;;;;;3.00;1.23;;;16.20;77.50;;;;;;10328725;28;20482;-56
2023/04/01 21:35:09;;;;;;;2.10;0.80;;;16.20;77.60;;;;;;10277923;28;20031;-56
2023/04/01 21:41:00;;;;;;;1.85;0.85;;;16.20;77.60;;;;;;10327199;28;20045;-56
2023/04/01 21:46:43;;;;;;;1.70;0.98;;;16.20;77.60;;;;;;10328271;28;20133;-56
2023/04/01 21:52:24;;;;;;;1.73;0.90;;;16.10;77.70;;;;;;10328198;28;20029;-57
2023/04/01 21:57:36;;;;;;;1.73;1.10;;;16.10;77.70;;;;;;10327849;28;20105;-56
2023/04/01 22:03:20;;;;;;;1.75;1.05;;;16.10;77.80;;;;;;10335878;28;20058;-56
2023/04/01 22:08:45;;;;;;;1.98;1.20;;;16.10;77.80;;;;;;10342515;28;20047;-55
2023/04/01 22:14:08;;;;;;;2.20;1.20;;;16.10;78.00;;;;;;10327514;28;20381;-56
2023/04/01 22:19:39;;;;;;;2.22;1.05;;;16.00;77.70;;;;;;10325639;28;20065;-56
2023/04/01 22:25:06;;;;;;;1.77;1.30;;;16.00;77.60;;;;;;10326382;28;20036;-55
2023/04/01 22:30:12;;;;;;;2.03;1.10;;;16.00;77.60;;;;;;10326476;28;20030;-56
2023/04/01 22:35:18;;;;;;;1.10;0.80;;;16.00;77.60;;;;;;10325211;28;20018;-56
2023/04/01 22:40:30;;;;;;;1.50;1.05;;;15.90;77.60;;;;;;10325037;28;20030;-56
2023/04/01 22:46:18;;;;;;;1.75;1.10;;;16.00;77.60;;;;;;10324658;28;20469;-55
2023/04/01 22:51:53;;;;;;;2.10;0.95;;;16.00;77.60;;;;;;10324811;28;20037;-56
2023/04/01 22:57:04;;;;;;;2.22;1.00;;;15.90;77.40;;;;;;10325284;28;20038;-56
2023/04/01 23:02:34;;;;;;;1.00;0.73;;;15.90;77.50;;;;;;10336145;28;20510;-56
2023/04/01 23:07:48;;;;;;;1.07;0.90;;;15.90;77.50;;;;;;10323796;28;20068;-56
2023/04/01 23:12:54;;;;;;;5.22;0.90;;;15.90;77.60;;;;;;10324949;28;20457;-56
2023/04/01 23:18:52;;;;;;;3.60;1.20;;;15.90;77.50;;;;;;10307412;28;20488;-56
2023/04/01 23:24:12;;;;;;;0.80;0.70;;;15.90;77.50;;;;;;10310238;28;20034;-56
2023/04/01 23:29:17;;;;;;;1.02;0.85;;;15.80;77.50;;;;;;10324233;28;20374;-56
2023/04/01 23:34:27;;;;;;;1.77;1.08;;;15.80;77.40;;;;;;10324250;28;20504;-56
2023/04/01 23:39:46;;;;;;;2.45;1.38;;;15.80;77.40;;;;;;10323117;28;20053;-56
2023/04/01 23:44:54;;;;;;;1.33;0.90;;;15.80;77.30;;;;;;10322476;28;20528;-55
2023/04/01 23:49:59;;;;;;;1.70;0.95;;;15.80;77.90;;;;;;10322608;28;20035;-55
2023/04/01 23:55:12;;;;;;;1.85;1.10;;;15.80;77.40;;;;;;10323810;28;20014;-56
